sensor_id;sensor_type;location;lat;lon;timestamp;P1;durP1;ratioP1;P2;durP2;ratioP2
27293;SDS011;14785;52.556;13.430;2022-12-05T00:00:58;86.50;;;29.48;;
27293;SDS011;14785;52.556;13.430;2022-12-05T00:03:45;83.55;;;31.15;;
27293;SDS011;14785;52.556;13.430;2022-12-05T00:06:16;81.40;;;30.30;;
27293;SDS011;14785;52.556;13.430;2022-12-05T00:08:42;75.88;;;29.95;;
27293;SDS011;14785;52.556;13.430;2022-12-05T00:11:10;79.43;;;28.75;;
27293;SDS011;14785;52.556;13.430;2022-12-05T00:13:43;58.90;;;22.73;;
27293;SDS011;14785;52.556;13.430;2022-12-05T00:16:10;86.72;;;28.35;;
27293;SDS011;14785;52.556;13.430;2022-12-05T00:18:37;71.60;;;26.10;;
27293;SDS011;14785;52.556;13.430;2022-12-05T00:21:03;78.15;;;31.48;;
27293;SDS011;14785;52.556;13.430;2022-12-05T00:23:29;75.72;;;28.92;;
27293;SDS011;14785;52.556;13.430;2022-12-05T00:26:01;80.60;;;29.90;;
27293;SDS011;14785;52.556;13.430;2022-12-05T00:28:32;69.50;;;29.73;;
27293;SDS011;14785;52.556;13.430;2022-12-05T00:31:05;82.45;;;26.48;;
27293;SDS011;14785;52.556;13.430;2022-12-05T00:33:33;87.68;;;29.63;;
27293;SDS011;14785;52.556;13.430;2022-12-05T00:36:09;74.82;;;24.88;;
27293;SDS011;14785;52.556;13.430;2022-12-05T00:38:36;71.38;;;26.55;;
27293;SDS011;14785;52.556;13.430;2022-12-05T00:41:03;79.78;;;29.33;;
27293;SDS011;14785;52.556;13.430;2022-12-05T00:43:30;79.65;;;27.42;;
27293;SDS011;14785;52.556;13.430;2022-12-05T00:48:25;73.82;;;25.67;;
27293;SDS011;14785;52.556;13.430;2022-12-05T00:50:51;82.50;;;28.87;;
27293;SDS011;14785;52.556;13.430;2022-12-05T00:53:30;63.60;;;23.08;;
27293;SDS011;14785;52.556;13.430;2022-12-05T00:55:59;52.08;;;22.52;;
27293;SDS011;14785;52.556;13.430;2022-12-05T00:58:28;69.95;;;27.65;;
27293;SDS011;14785;52.556;13.430;2022-12-05T01:00:55;85.32;;;30.02;;
27293;SDS011;14785;52.556;13.430;2022-12-05T01:03:20;83.47;;;28.47;;
27293;SDS011;14785;52.556;13.430;2022-12-05T01:08:13;77.18;;;27.08;;
27293;SDS011;14785;52.556;13.430;2022-12-05T01:10:38;78.83;;;28.20;;
27293;SDS011;14785;52.556;13.430;2022-12-05T01:13:04;66.13;;;27.33;;
27293;SDS011;14785;52.556;13.430;2022-12-05T01:15:29;80.70;;;28.83;;
27293;SDS011;14785;52.556;13.430;2022-12-05T01:17:55;78.00;;;26.23;;
27293;SDS011;14785;52.556;13.430;2022-12-05T01:20:20;78.10;;;27.97;;
27293;SDS011;14785;52.556;13.430;2022-12-05T01:22:46;85.25;;;30.17;;
27293;SDS011;14785;52.556;13.430;2022-12-05T01:25:11;77.13;;;27.97;;
27293;SDS011;14785;52.556;13.430;2022-12-05T01:27:37;63.23;;;26.33;;
27293;SDS011;14785;52.556;13.430;2022-12-05T01:30:02;80.13;;;28.90;;
27293;SDS011;14785;52.556;13.430;2022-12-05T01:32:28;80.50;;;30.45;;
27293;SDS011;14785;52.556;13.430;2022-12-05T01:34:56;85.88;;;30.17;;
27293;SDS011;14785;52.556;13.430;2022-12-05T01:37:22;77.73;;;28.33;;
27293;SDS011;14785;52.556;13.430;2022-12-05T01:39:50;76.10;;;28.00;;
27293;SDS011;14785;52.556;13.430;2022-12-05T01:42:15;77.63;;;27.83;;
27293;SDS011;14785;52.556;13.430;2022-12-05T01:47:14;85.07;;;30.60;;
27293;SDS011;14785;52.556;13.430;2022-12-05T01:49:41;93.00;;;31.00;;
27293;SDS011;14785;52.556;13.430;2022-12-05T01:52:13;89.50;;;33.25;;
27293;SDS011;14785;52.556;13.430;2022-12-05T01:54:50;87.82;;;29.92;;
27293;SDS011;14785;52.556;13.430;2022-12-05T01:57:19;77.07;;;27.92;;
27293;SDS011;14785;52.556;13.430;2022-12-05T01:59:47;84.28;;;30.65;;
27293;SDS011;14785;52.556;13.430;2022-12-05T02:02:19;79.18;;;26.92;;
27293;SDS011;14785;52.556;13.430;2022-12-05T02:07:51;79.80;;;28.13;;
27293;SDS011;14785;52.556;13.430;2022-12-05T02:10:17;78.63;;;30.93;;
27293;SDS011;14785;52.556;13.430;2022-12-05T02:12:43;70.63;;;25.48;;
27293;SDS011;14785;52.556;13.430;2022-12-05T02:31:45;60.70;;;23.55;;
27293;SDS011;14785;52.556;13.430;2022-12-05T02:34:32;63.92;;;24.15;;
27293;SDS011;14785;52.556;13.430;2022-12-05T02:37:13;86.28;;;31.40;;
27293;SDS011;14785;52.556;13.430;2022-12-05T02:40:09;94.13;;;32.17;;
27293;SDS011;14785;52.556;13.430;2022-12-05T02:42:50;85.65;;;28.60;;
27293;SDS011;14785;52.556;13.430;2022-12-05T02:45:27;60.78;;;25.05;;
27293;SDS011;14785;52.556;13.430;2022-12-05T02:47:58;75.90;;;26.90;;
27293;SDS011;14785;52.556;13.430;2022-12-05T02:52:53;66.43;;;27.45;;
27293;SDS011;14785;52.556;13.430;2022-12-05T02:55:23;76.85;;;25.13;;
27293;SDS011;14785;52.556;13.430;2022-12-05T02:57:53;61.28;;;26.20;;
27293;SDS011;14785;52.556;13.430;2022-12-05T03:00:24;75.10;;;29.75;;
27293;SDS011;14785;52.556;13.430;2022-12-05T03:02:50;59.97;;;21.77;;
27293;SDS011;14785;52.556;13.430;2022-12-05T03:07:57;78.15;;;28.88;;
27293;SDS011;14785;52.556;13.430;2022-12-05T03:10:26;89.13;;;30.90;;
27293;SDS011;14785;52.556;13.430;2022-12-05T03:12:55;80.97;;;28.52;;
27293;SDS011;14785;52.556;13.430;2022-12-05T03:15:33;84.32;;;28.95;;
27293;SDS011;14785;52.556;13.430;2022-12-05T03:18:09;67.25;;;27.25;;
27293;SDS011;14785;52.556;13.430;2022-12-05T03:20:45;57.95;;;23.00;;
27293;SDS011;14785;52.556;13.430;2022-12-05T03:23:34;76.78;;;28.88;;
27293;SDS011;14785;52.556;13.430;2022-12-05T03:29:00;75.22;;;26.10;;
27293;SDS011;14785;52.556;13.430;2022-12-05T03:34:17;75.35;;;24.75;;
27293;SDS011;14785;52.556;13.430;2022-12-05T03:36:51;55.15;;;22.73;;
27293;SDS011;14785;52.556;13.430;2022-12-05T03:39:28;60.35;;;23.23;;
27293;SDS011;14785;52.556;13.430;2022-12-05T03:44:59;63.10;;;22.55;;
27293;SDS011;14785;52.556;13.430;2022-12-05T03:50:11;66.85;;;22.85;;
27293;SDS011;14785;52.556;13.430;2022-12-05T03:52:48;67.78;;;24.02;;
27293;SDS011;14785;52.556;13.430;2022-12-05T03:55:37;44.03;;;20.75;;
27293;SDS011;14785;52.556;13.430;2022-12-05T03:58:09;64.93;;;23.30;;
27293;SDS011;14785;52.556;13.430;2022-12-05T04:00:45;59.15;;;20.20;;
27293;SDS011;14785;52.556;13.430;2022-12-05T04:03:22;52.35;;;22.95;;
27293;SDS011;14785;52.556;13.430;2022-12-05T04:06:14;43.72;;;19.05;;
27293;SDS011;14785;52.556;13.430;2022-12-05T04:08:53;61.80;;;22.60;;
27293;SDS011;14785;52.556;13.430;2022-12-05T04:11:23;54.28;;;19.60;;
27293;SDS011;14785;52.556;13.430;2022-12-05T04:14:04;56.80;;;19.23;;
27293;SDS011;14785;52.556;13.430;2022-12-05T04:16:42;54.88;;;21.70;;
27293;SDS011;14785;52.556;13.430;2022-12-05T04:22:35;43.20;;;20.42;;
27293;SDS011;14785;52.556;13.430;2022-12-05T04:25:03;44.20;;;20.42;;
27293;SDS011;14785;52.556;13.430;2022-12-05T04:30:36;39.80;;;16.98;;
27293;SDS011;14785;52.556;13.430;2022-12-05T04:35:42;44.90;;;18.92;;
27293;SDS011;14785;52.556;13.430;2022-12-05T04:38:26;42.63;;;20.65;;
27293;SDS011;14785;52.556;13.430;2022-12-05T04:41:05;51.50;;;19.67;;
27293;SDS011;14785;52.556;13.430;2022-12-05T04:43:38;47.50;;;17.80;;
27293;SDS011;14785;52.556;13.430;2022-12-05T04:46:06;46.75;;;20.13;;
27293;SDS011;14785;52.556;13.430;2022-12-05T04:48:36;44.28;;;16.63;;
27293;SDS011;14785;52.556;13.430;2022-12-05T04:51:04;43.67;;;16.95;;
27293;SDS011;14785;52.556;13.430;2022-12-05T04:53:33;48.75;;;19.67;;
27293;SDS011;14785;52.556;13.430;2022-12-05T04:56:00;51.28;;;19.55;;
27293;SDS011;14785;52.556;13.430;2022-12-05T04:58:28;40.53;;;18.40;;
27293;SDS011;14785;52.556;13.430;2022-12-05T05:03:43;39.05;;;15.88;;
27293;SDS011;14785;52.556;13.430;2022-12-05T05:06:14;53.70;;;19.45;;
27293;SDS011;14785;52.556;13.430;2022-12-05T05:08:50;37.60;;;15.02;;
27293;SDS011;14785;52.556;13.430;2022-12-05T05:11:33;37.70;;;15.70;;
27293;SDS011;14785;52.556;13.430;2022-12-05T05:13:59;38.20;;;14.80;;
27293;SDS011;14785;52.556;13.430;2022-12-05T05:16:32;32.67;;;14.90;;
27293;SDS011;14785;52.556;13.430;2022-12-05T05:19:00;33.65;;;15.75;;
27293;SDS011;14785;52.556;13.430;2022-12-05T05:21:28;36.67;;;14.52;;
27293;SDS011;14785;52.556;13.430;2022-12-05T05:23:55;33.58;;;15.20;;
27293;SDS011;14785;52.556;13.430;2022-12-05T05:26:21;34.50;;;14.85;;
27293;SDS011;14785;52.556;13.430;2022-12-05T05:28:51;37.70;;;14.60;;
27293;SDS011;14785;52.556;13.430;2022-12-05T05:31:17;40.35;;;15.57;;
27293;SDS011;14785;52.556;13.430;2022-12-05T05:33:51;31.52;;;13.68;;
27293;SDS011;14785;52.556;13.430;2022-12-05T05:36:22;38.00;;;15.52;;
27293;SDS011;14785;52.556;13.430;2022-12-05T05:38:50;35.83;;;13.65;;
27293;SDS011;14785;52.556;13.430;2022-12-05T05:41:18;29.70;;;13.75;;
27293;SDS011;14785;52.556;13.430;2022-12-05T05:43:46;20.52;;;10.40;;
27293;SDS011;14785;52.556;13.430;2022-12-05T05:48:39;30.88;;;12.27;;
27293;SDS011;14785;52.556;13.430;2022-12-05T05:51:05;28.02;;;12.35;;
27293;SDS011;14785;52.556;13.430;2022-12-05T05:53:32;28.45;;;12.00;;
27293;SDS011;14785;52.556;13.430;2022-12-05T05:56:01;22.83;;;9.77;;
27293;SDS011;14785;52.556;13.430;2022-12-05T05:58:36;22.73;;;10.77;;
27293;SDS011;14785;52.556;13.430;2022-12-05T06:01:06;25.67;;;12.07;;
27293;SDS011;14785;52.556;13.430;2022-12-05T06:03:35;26.17;;;12.20;;
27293;SDS011;14785;52.556;13.430;2022-12-05T06:06:02;31.50;;;11.48;;
27293;SDS011;14785;52.556;13.430;2022-12-05T06:08:33;32.22;;;12.27;;
27293;SDS011;14785;52.556;13.430;2022-12-05T06:11:04;24.55;;;10.68;;
27293;SDS011;14785;52.556;13.430;2022-12-05T06:13:31;25.25;;;11.98;;
27293;SDS011;14785;52.556;13.430;2022-12-05T06:15:56;21.83;;;10.17;;
27293;SDS011;14785;52.556;13.430;2022-12-05T06:18:25;26.15;;;11.60;;
27293;SDS011;14785;52.556;13.430;2022-12-05T06:20:54;24.48;;;11.05;;
27293;SDS011;14785;52.556;13.430;2022-12-05T06:23:23;25.90;;;11.32;;
27293;SDS011;14785;52.556;13.430;2022-12-05T06:25:50;18.92;;;9.30;;
27293;SDS011;14785;52.556;13.430;2022-12-05T06:28:18;18.80;;;9.90;;
27293;SDS011;14785;52.556;13.430;2022-12-05T06:33:11;24.08;;;10.07;;
27293;SDS011;14785;52.556;13.430;2022-12-05T06:35:36;20.37;;;8.07;;
27293;SDS011;14785;52.556;13.430;2022-12-05T06:38:02;26.57;;;10.30;;
27293;SDS011;14785;52.556;13.430;2022-12-05T06:40:28;18.40;;;10.00;;
27293;SDS011;14785;52.556;13.430;2022-12-05T06:42:54;21.42;;;11.18;;
27293;SDS011;14785;52.556;13.430;2022-12-05T06:45:21;21.92;;;10.50;;
27293;SDS011;14785;52.556;13.430;2022-12-05T06:47:46;24.47;;;10.60;;
27293;SDS011;14785;52.556;13.430;2022-12-05T06:50:12;21.10;;;9.07;;
27293;SDS011;14785;52.556;13.430;2022-12-05T06:52:38;27.37;;;11.10;;
27293;SDS011;14785;52.556;13.430;2022-12-05T06:55:04;24.43;;;10.07;;
27293;SDS011;14785;52.556;13.430;2022-12-05T06:57:31;18.55;;;8.40;;
27293;SDS011;14785;52.556;13.430;2022-12-05T06:59:56;22.63;;;9.87;;
27293;SDS011;14785;52.556;13.430;2022-12-05T07:02:40;26.38;;;10.82;;
27293;SDS011;14785;52.556;13.430;2022-12-05T07:05:07;14.75;;;7.70;;
27293;SDS011;14785;52.556;13.430;2022-12-05T07:07:33;24.13;;;10.30;;
27293;SDS011;14785;52.556;13.430;2022-12-05T07:12:28;17.23;;;9.15;;
27293;SDS011;14785;52.556;13.430;2022-12-05T07:14:56;23.45;;;11.27;;
27293;SDS011;14785;52.556;13.430;2022-12-05T07:17:23;18.42;;;9.23;;
27293;SDS011;14785;52.556;13.430;2022-12-05T07:19:50;19.67;;;8.98;;
27293;SDS011;14785;52.556;13.430;2022-12-05T07:22:16;24.33;;;9.98;;
27293;SDS011;14785;52.556;13.430;2022-12-05T07:27:09;20.20;;;9.85;;
27293;SDS011;14785;52.556;13.430;2022-12-05T07:29:34;25.63;;;9.77;;
27293;SDS011;14785;52.556;13.430;2022-12-05T07:32:00;19.92;;;8.88;;
27293;SDS011;14785;52.556;13.430;2022-12-05T07:34:26;20.53;;;10.03;;
27293;SDS011;14785;52.556;13.430;2022-12-05T07:36:54;22.30;;;10.57;;
27293;SDS011;14785;52.556;13.430;2022-12-05T07:39:20;19.97;;;9.93;;
27293;SDS011;14785;52.556;13.430;2022-12-05T07:41:45;20.97;;;10.70;;
27293;SDS011;14785;52.556;13.430;2022-12-05T07:44:11;23.65;;;10.18;;
27293;SDS011;14785;52.556;13.430;2022-12-05T07:46:38;28.25;;;11.18;;
27293;SDS011;14785;52.556;13.430;2022-12-05T07:49:04;26.13;;;11.18;;
27293;SDS011;14785;52.556;13.430;2022-12-05T07:51:29;19.88;;;9.98;;
27293;SDS011;14785;52.556;13.430;2022-12-05T07:53:57;25.07;;;10.67;;
27293;SDS011;14785;52.556;13.430;2022-12-05T07:56:24;20.58;;;10.45;;
27293;SDS011;14785;52.556;13.430;2022-12-05T07:58:51;19.02;;;10.35;;
27293;SDS011;14785;52.556;13.430;2022-12-05T08:01:21;22.52;;;10.20;;
27293;SDS011;14785;52.556;13.430;2022-12-05T08:03:48;17.75;;;9.27;;
27293;SDS011;14785;52.556;13.430;2022-12-05T08:06:15;26.58;;;11.43;;
27293;SDS011;14785;52.556;13.430;2022-12-05T08:08:43;32.65;;;11.82;;
27293;SDS011;14785;52.556;13.430;2022-12-05T08:11:10;22.38;;;10.93;;
27293;SDS011;14785;52.556;13.430;2022-12-05T08:13:38;24.95;;;10.90;;
27293;SDS011;14785;52.556;13.430;2022-12-05T08:16:05;25.08;;;12.35;;
27293;SDS011;14785;52.556;13.430;2022-12-05T08:18:32;29.05;;;12.32;;
27293;SDS011;14785;52.556;13.430;2022-12-05T08:21:05;30.20;;;12.53;;
27293;SDS011;14785;52.556;13.430;2022-12-05T08:23:35;28.60;;;12.50;;
27293;SDS011;14785;52.556;13.430;2022-12-05T08:26:04;23.90;;;10.43;;
27293;SDS011;14785;52.556;13.430;2022-12-05T08:28:33;25.52;;;12.38;;
27293;SDS011;14785;52.556;13.430;2022-12-05T08:31:03;24.83;;;11.75;;
27293;SDS011;14785;52.556;13.430;2022-12-05T08:33:34;20.80;;;10.25;;
27293;SDS011;14785;52.556;13.430;2022-12-05T08:36:01;24.60;;;10.03;;
27293;SDS011;14785;52.556;13.430;2022-12-05T08:38:28;19.85;;;11.50;;
27293;SDS011;14785;52.556;13.430;2022-12-05T08:40:53;24.97;;;12.33;;
27293;SDS011;14785;52.556;13.430;2022-12-05T08:43:19;23.50;;;9.00;;
27293;SDS011;14785;52.556;13.430;2022-12-05T08:45:49;18.63;;;9.95;;
27293;SDS011;14785;52.556;13.430;2022-12-05T08:48:16;22.80;;;9.95;;
27293;SDS011;14785;52.556;13.430;2022-12-05T08:50:41;26.33;;;11.55;;
27293;SDS011;14785;52.556;13.430;2022-12-05T08:53:07;20.30;;;10.40;;
27293;SDS011;14785;52.556;13.430;2022-12-05T08:55:35;19.70;;;10.05;;
27293;SDS011;14785;52.556;13.430;2022-12-05T08:58:01;24.92;;;12.23;;
27293;SDS011;14785;52.556;13.430;2022-12-05T09:00:28;19.20;;;10.77;;
27293;SDS011;14785;52.556;13.430;2022-12-05T09:02:54;21.93;;;10.30;;
27293;SDS011;14785;52.556;13.430;2022-12-05T09:05:20;18.63;;;9.37;;
27293;SDS011;14785;52.556;13.430;2022-12-05T09:07:47;19.52;;;9.95;;
27293;SDS011;14785;52.556;13.430;2022-12-05T09:10:13;26.77;;;10.05;;
27293;SDS011;14785;52.556;13.430;2022-12-05T09:12:39;17.17;;;8.87;;
27293;SDS011;14785;52.556;13.430;2022-12-05T09:15:05;20.77;;;9.33;;
27293;SDS011;14785;52.556;13.430;2022-12-05T09:17:31;20.20;;;9.75;;
27293;SDS011;14785;52.556;13.430;2022-12-05T09:19:58;18.57;;;9.40;;
27293;SDS011;14785;52.556;13.430;2022-12-05T09:22:24;17.77;;;9.30;;
27293;SDS011;14785;52.556;13.430;2022-12-05T09:24:49;22.23;;;10.23;;
27293;SDS011;14785;52.556;13.430;2022-12-05T09:27:15;14.80;;;8.17;;
27293;SDS011;14785;52.556;13.430;2022-12-05T09:29:40;16.33;;;8.70;;
27293;SDS011;14785;52.556;13.430;2022-12-05T09:32:07;20.27;;;10.20;;
27293;SDS011;14785;52.556;13.430;2022-12-05T09:34:32;19.27;;;8.30;;
27293;SDS011;14785;52.556;13.430;2022-12-05T09:37:00;20.10;;;8.73;;
27293;SDS011;14785;52.556;13.430;2022-12-05T09:39:26;19.40;;;8.02;;
27293;SDS011;14785;52.556;13.430;2022-12-05T09:47:58;17.52;;;8.45;;
27293;SDS011;14785;52.556;13.430;2022-12-05T09:50:44;20.73;;;9.13;;
27293;SDS011;14785;52.556;13.430;2022-12-05T09:53:23;18.15;;;7.70;;
27293;SDS011;14785;52.556;13.430;2022-12-05T09:56:20;13.27;;;6.85;;
27293;SDS011;14785;52.556;13.430;2022-12-05T09:58:53;21.45;;;8.38;;
27293;SDS011;14785;52.556;13.430;2022-12-05T10:01:40;18.38;;;9.15;;
27293;SDS011;14785;52.556;13.430;2022-12-05T10:15:31;15.10;;;9.00;;
27293;SDS011;14785;52.556;13.430;2022-12-05T10:18:02;20.67;;;8.77;;
27293;SDS011;14785;52.556;13.430;2022-12-05T10:20:42;19.08;;;8.70;;
27293;SDS011;14785;52.556;13.430;2022-12-05T10:26:03;17.20;;;9.57;;
27293;SDS011;14785;52.556;13.430;2022-12-05T10:28:33;15.23;;;8.50;;
27293;SDS011;14785;52.556;13.430;2022-12-05T10:31:05;16.73;;;8.88;;
27293;SDS011;14785;52.556;13.430;2022-12-05T10:33:38;17.40;;;9.05;;
27293;SDS011;14785;52.556;13.430;2022-12-05T10:36:09;24.70;;;9.35;;
27293;SDS011;14785;52.556;13.430;2022-12-05T10:38:40;16.20;;;7.68;;
27293;SDS011;14785;52.556;13.430;2022-12-05T10:41:07;18.92;;;10.35;;
27293;SDS011;14785;52.556;13.430;2022-12-05T10:43:35;18.10;;;9.65;;
27293;SDS011;14785;52.556;13.430;2022-12-05T10:46:03;18.45;;;10.10;;
27293;SDS011;14785;52.556;13.430;2022-12-05T10:48:29;22.38;;;11.27;;
27293;SDS011;14785;52.556;13.430;2022-12-05T10:51:01;11.93;;;7.03;;
27293;SDS011;14785;52.556;13.430;2022-12-05T10:53:30;18.50;;;9.52;;
27293;SDS011;14785;52.556;13.430;2022-12-05T10:56:04;22.17;;;10.55;;
27293;SDS011;14785;52.556;13.430;2022-12-05T11:01:45;21.27;;;10.10;;
27293;SDS011;14785;52.556;13.430;2022-12-05T11:07:20;19.15;;;8.32;;
27293;SDS011;14785;52.556;13.430;2022-12-05T11:10:00;15.88;;;8.65;;
27293;SDS011;14785;52.556;13.430;2022-12-05T11:17:32;26.48;;;10.82;;
27293;SDS011;14785;52.556;13.430;2022-12-05T11:20:02;24.10;;;9.45;;
27293;SDS011;14785;52.556;13.430;2022-12-05T11:22:49;14.95;;;9.25;;
27293;SDS011;14785;52.556;13.430;2022-12-05T11:25:24;17.23;;;9.88;;
27293;SDS011;14785;52.556;13.430;2022-12-05T11:27:55;17.63;;;8.88;;
27293;SDS011;14785;52.556;13.430;2022-12-05T11:30:24;16.58;;;9.23;;
27293;SDS011;14785;52.556;13.430;2022-12-05T11:33:17;26.17;;;11.65;;
27293;SDS011;14785;52.556;13.430;2022-12-05T11:35:45;18.48;;;9.18;;
27293;SDS011;14785;52.556;13.430;2022-12-05T11:38:12;17.10;;;8.10;;
27293;SDS011;14785;52.556;13.430;2022-12-05T11:55:20;22.90;;;10.70;;
27293;SDS011;14785;52.556;13.430;2022-12-05T11:58:11;25.88;;;12.48;;
27293;SDS011;14785;52.556;13.430;2022-12-05T12:11:35;25.35;;;13.57;;
27293;SDS011;14785;52.556;13.430;2022-12-05T12:14:10;22.23;;;10.32;;
27293;SDS011;14785;52.556;13.430;2022-12-05T12:25:19;23.38;;;11.32;;
27293;SDS011;14785;52.556;13.430;2022-12-05T12:36:14;27.58;;;11.40;;
27293;SDS011;14785;52.556;13.430;2022-12-05T12:38:53;25.52;;;10.55;;
27293;SDS011;14785;52.556;13.430;2022-12-05T12:50:13;31.67;;;13.85;;
27293;SDS011;14785;52.556;13.430;2022-12-05T13:01:19;24.60;;;13.02;;
27293;SDS011;14785;52.556;13.430;2022-12-05T13:04:06;22.88;;;12.20;;
27293;SDS011;14785;52.556;13.430;2022-12-05T13:09:26;22.83;;;9.05;;
27293;SDS011;14785;52.556;13.430;2022-12-05T13:11:58;29.80;;;12.48;;
27293;SDS011;14785;52.556;13.430;2022-12-05T13:14:29;27.23;;;11.75;;
27293;SDS011;14785;52.556;13.430;2022-12-05T13:16:58;22.10;;;10.20;;
27293;SDS011;14785;52.556;13.430;2022-12-05T13:19:29;23.42;;;12.02;;
27293;SDS011;14785;52.556;13.430;2022-12-05T13:22:03;27.20;;;10.02;;
27293;SDS011;14785;52.556;13.430;2022-12-05T13:24:30;28.55;;;12.63;;
27293;SDS011;14785;52.556;13.430;2022-12-05T13:26:57;19.53;;;9.37;;
27293;SDS011;14785;52.556;13.430;2022-12-05T13:29:38;26.48;;;10.13;;
27293;SDS011;14785;52.556;13.430;2022-12-05T13:34:54;28.52;;;12.07;;
27293;SDS011;14785;52.556;13.430;2022-12-05T13:37:29;36.22;;;15.23;;
27293;SDS011;14785;52.556;13.430;2022-12-05T13:40:25;24.02;;;11.40;;
27293;SDS011;14785;52.556;13.430;2022-12-05T13:43:10;31.83;;;14.38;;
27293;SDS011;14785;52.556;13.430;2022-12-05T13:45:39;29.33;;;13.15;;
27293;SDS011;14785;52.556;13.430;2022-12-05T13:50:41;29.75;;;13.60;;
27293;SDS011;14785;52.556;13.430;2022-12-05T13:53:31;34.92;;;13.60;;
27293;SDS011;14785;52.556;13.430;2022-12-05T14:17:25;29.75;;;14.55;;
27293;SDS011;14785;52.556;13.430;2022-12-05T14:34:13;40.53;;;14.02;;
27293;SDS011;14785;52.556;13.430;2022-12-05T14:39:53;34.60;;;14.80;;
27293;SDS011;14785;52.556;13.430;2022-12-05T14:50:41;34.88;;;14.80;;
27293;SDS011;14785;52.556;13.430;2022-12-05T14:56:17;33.95;;;16.08;;
27293;SDS011;14785;52.556;13.430;2022-12-05T15:01:22;39.60;;;14.75;;
27293;SDS011;14785;52.556;13.430;2022-12-05T15:09:34;47.47;;;18.65;;
27293;SDS011;14785;52.556;13.430;2022-12-05T15:12:12;51.00;;;19.55;;
27293;SDS011;14785;52.556;13.430;2022-12-05T15:14:43;51.03;;;18.75;;
27293;SDS011;14785;52.556;13.430;2022-12-05T15:17:14;43.58;;;13.60;;
27293;SDS011;14785;52.556;13.430;2022-12-05T15:19:44;41.20;;;14.73;;
27293;SDS011;14785;52.556;13.430;2022-12-05T15:22:27;30.17;;;11.75;;
27293;SDS011;14785;52.556;13.430;2022-12-05T15:24:57;48.20;;;18.70;;
27293;SDS011;14785;52.556;13.430;2022-12-05T15:27:22;62.08;;;20.38;;
27293;SDS011;14785;52.556;13.430;2022-12-05T15:29:48;45.40;;;15.93;;
27293;SDS011;14785;52.556;13.430;2022-12-05T15:32:20;31.48;;;11.73;;
27293;SDS011;14785;52.556;13.430;2022-12-05T15:34:58;38.63;;;18.23;;
27293;SDS011;14785;52.556;13.430;2022-12-05T15:40:18;47.90;;;17.20;;
27293;SDS011;14785;52.556;13.430;2022-12-05T15:42:52;53.10;;;19.85;;
27293;SDS011;14785;52.556;13.430;2022-12-05T15:45:23;48.40;;;20.02;;
27293;SDS011;14785;52.556;13.430;2022-12-05T15:48:09;51.97;;;18.58;;
27293;SDS011;14785;52.556;13.430;2022-12-05T15:50:40;64.43;;;22.35;;
27293;SDS011;14785;52.556;13.430;2022-12-05T15:53:13;50.40;;;17.80;;
27293;SDS011;14785;52.556;13.430;2022-12-05T15:58:28;50.90;;;18.95;;
27293;SDS011;14785;52.556;13.430;2022-12-05T16:01:00;64.13;;;21.40;;
27293;SDS011;14785;52.556;13.430;2022-12-05T16:06:00;55.47;;;21.52;;
27293;SDS011;14785;52.556;13.430;2022-12-05T16:08:31;64.40;;;19.67;;
27293;SDS011;14785;52.556;13.430;2022-12-05T16:11:09;55.53;;;20.48;;
27293;SDS011;14785;52.556;13.430;2022-12-05T16:13:35;77.63;;;22.73;;
27293;SDS011;14785;52.556;13.430;2022-12-05T16:16:06;54.63;;;21.35;;
27293;SDS011;14785;52.556;13.430;2022-12-05T16:20:58;64.90;;;20.02;;
27293;SDS011;14785;52.556;13.430;2022-12-05T16:23:29;70.13;;;22.35;;
27293;SDS011;14785;52.556;13.430;2022-12-05T16:28:58;79.25;;;24.02;;
27293;SDS011;14785;52.556;13.430;2022-12-05T16:31:25;61.05;;;21.05;;
27293;SDS011;14785;52.556;13.430;2022-12-05T16:34:03;64.45;;;21.63;;
27293;SDS011;14785;52.556;13.430;2022-12-05T16:36:31;89.22;;;25.80;;
27293;SDS011;14785;52.556;13.430;2022-12-05T16:39:24;69.53;;;20.60;;
27293;SDS011;14785;52.556;13.430;2022-12-05T16:41:52;57.55;;;17.55;;
27293;SDS011;14785;52.556;13.430;2022-12-05T16:49:34;66.72;;;19.65;;
27293;SDS011;14785;52.556;13.430;2022-12-05T16:52:02;64.63;;;23.85;;
27293;SDS011;14785;52.556;13.430;2022-12-05T16:54:38;68.45;;;23.85;;
27293;SDS011;14785;52.556;13.430;2022-12-05T16:57:04;51.47;;;19.35;;
27293;SDS011;14785;52.556;13.430;2022-12-05T17:01:57;57.17;;;19.88;;
27293;SDS011;14785;52.556;13.430;2022-12-05T17:04:26;58.78;;;19.95;;
27293;SDS011;14785;52.556;13.430;2022-12-05T17:06:52;69.00;;;22.10;;
27293;SDS011;14785;52.556;13.430;2022-12-05T17:09:19;76.68;;;23.45;;
27293;SDS011;14785;52.556;13.430;2022-12-05T17:11:45;63.45;;;23.55;;
27293;SDS011;14785;52.556;13.430;2022-12-05T17:14:13;73.93;;;23.95;;
27293;SDS011;14785;52.556;13.430;2022-12-05T17:16:41;41.90;;;17.42;;
27293;SDS011;14785;52.556;13.430;2022-12-05T17:19:10;63.05;;;20.52;;
27293;SDS011;14785;52.556;13.430;2022-12-05T17:21:37;48.42;;;18.45;;
27293;SDS011;14785;52.556;13.430;2022-12-05T17:24:06;44.22;;;19.00;;
27293;SDS011;14785;52.556;13.430;2022-12-05T17:26:32;61.20;;;21.95;;
27293;SDS011;14785;52.556;13.430;2022-12-05T17:28:57;48.20;;;18.10;;
27293;SDS011;14785;52.556;13.430;2022-12-05T17:31:23;45.93;;;17.40;;
27293;SDS011;14785;52.556;13.430;2022-12-05T17:33:50;55.17;;;21.08;;
27293;SDS011;14785;52.556;13.430;2022-12-05T17:36:17;65.63;;;21.23;;
27293;SDS011;14785;52.556;13.430;2022-12-05T17:38:45;64.57;;;21.73;;
27293;SDS011;14785;52.556;13.430;2022-12-05T17:41:20;56.67;;;19.90;;
27293;SDS011;14785;52.556;13.430;2022-12-05T17:43:47;50.47;;;19.17;;
27293;SDS011;14785;52.556;13.430;2022-12-05T17:46:17;59.40;;;21.10;;
27293;SDS011;14785;52.556;13.430;2022-12-05T17:48:44;63.72;;;21.73;;
27293;SDS011;14785;52.556;13.430;2022-12-05T17:51:10;50.50;;;18.58;;
27293;SDS011;14785;52.556;13.430;2022-12-05T17:53:37;47.53;;;16.90;;
27293;SDS011;14785;52.556;13.430;2022-12-05T17:56:03;61.20;;;23.33;;
27293;SDS011;14785;52.556;13.430;2022-12-05T18:00:54;54.17;;;19.05;;
27293;SDS011;14785;52.556;13.430;2022-12-05T18:03:20;60.97;;;22.50;;
27293;SDS011;14785;52.556;13.430;2022-12-05T18:05:45;52.87;;;19.77;;
27293;SDS011;14785;52.556;13.430;2022-12-05T18:08:12;72.57;;;25.60;;
27293;SDS011;14785;52.556;13.430;2022-12-05T18:10:42;68.30;;;22.40;;
27293;SDS011;14785;52.556;13.430;2022-12-05T18:13:10;62.92;;;22.30;;
27293;SDS011;14785;52.556;13.430;2022-12-05T18:18:02;48.65;;;20.55;;
27293;SDS011;14785;52.556;13.430;2022-12-05T18:20:30;49.28;;;18.92;;
27293;SDS011;14785;52.556;13.430;2022-12-05T18:22:56;47.78;;;18.08;;
27293;SDS011;14785;52.556;13.430;2022-12-05T18:25:22;50.25;;;17.05;;
27293;SDS011;14785;52.556;13.430;2022-12-05T18:27:48;64.47;;;21.05;;
27293;SDS011;14785;52.556;13.430;2022-12-05T18:30:13;59.97;;;20.93;;
27293;SDS011;14785;52.556;13.430;2022-12-05T18:32:39;55.63;;;18.67;;
27293;SDS011;14785;52.556;13.430;2022-12-05T18:35:05;51.43;;;19.40;;
27293;SDS011;14785;52.556;13.430;2022-12-05T18:37:36;38.20;;;15.75;;